Time;durP1;ratioP1;P1;durP2;ratioP2;P2;SDS_P1;SDS_P2;PMS_P1;PMS_P2;Temp;Humidity;BMP_temperature;BMP_pressure;BME280_temperature;BME280_humidity;BME280_pressure;Samples;Min_cycle;Max_cycle;Signal;HPM_P1;HPM_P2
2021/09/20 00:01:43;;;;;;;;;2.00;1.75;;;;;15.06;85.95;101628.69;5082848;27;45202;-85
2021/09/20 00:04:09;;;;;;;;;1.00;1.00;;;;;15.03;86.31;101634.13;5099918;27;45550;-85
2021/09/20 00:06:34;;;;;;;;;0.25;0.25;;;;;14.92;86.74;101631.88;5070565;27;46250;-85
2021/09/20 00:08:59;;;;;;;;;0.00;0.00;;;;;14.90;86.41;101643.44;5101850;27;45186;-86
2021/09/20 00:11:25;;;;;;;;;2.00;2.00;;;;;14.79;86.34;101628.78;5102237;27;45199;-85
2021/09/20 00:13:50;;;;;;;;;0.00;0.00;;;;;14.82;86.89;101631.31;5095130;27;45494;-86
2021/09/20 00:16:16;;;;;;;;;3.00;0.00;;;;;14.80;86.82;101630.50;5084426;27;46272;-87
2021/09/20 00:18:41;;;;;;;;;2.00;0.75;;;;;14.83;86.95;101635.69;5074219;27;45992;-86
2021/09/20 00:21:07;;;;;;;;;0.00;0.00;;;;;14.78;86.65;101628.84;5083220;27;45399;-87
2021/09/20 00:23:32;;;;;;;;;1.00;0.00;;;;;14.82;87.00;101635.72;5079645;27;46009;-87
2021/09/20 00:25:58;;;;;;;;;0.00;0.00;;;;;14.85;87.11;101633.88;5091807;27;46330;-86
2021/09/20 00:28:25;;;;;;;;;1.00;0.00;;;;;14.87;86.98;101638.25;5082118;27;45406;-88
2021/09/20 00:30:50;;;;;;;;;1.00;1.00;;;;;14.82;87.04;101627.78;5101423;27;45364;-88
2021/09/20 00:33:16;;;;;;;;;0.00;0.00;;;;;14.83;87.15;101627.75;5090254;27;45472;-90
2021/09/20 00:35:42;;;;;;;;;0.00;0.00;;;;;14.86;86.63;101629.47;5081099;27;45412;-90
2021/09/20 00:38:07;;;;;;;;;0.25;0.00;;;;;14.85;86.95;101630.34;5094794;27;45456;-91
2021/09/20 00:40:33;;;;;;;;;1.00;0.00;;;;;14.81;86.99;101628.75;5095213;27;45867;-92
2021/09/20 00:43:14;;;;;;;;;0.00;0.00;;;;;14.78;87.00;101629.72;5101281;27;45281;-88
2021/09/20 00:45:40;;;;;;;;;1.75;1.00;;;;;14.73;86.98;101621.06;5088551;27;45387;-87
2021/09/20 00:48:05;;;;;;;;;0.00;0.00;;;;;14.68;87.39;101610.66;5087516;27;45321;-88
2021/09/20 00:50:31;;;;;;;;;0.00;0.00;;;;;14.78;87.34;101623.53;5105214;27;45420;-87
2021/09/20 00:52:56;;;;;;;;;1.00;1.00;;;;;14.70;87.27;101608.81;5110661;27;45238;-86
2021/09/20 00:55:22;;;;;;;;;0.00;0.00;;;;;14.77;87.32;101622.69;5085729;27;45267;-87
2021/09/20 00:57:48;;;;;;;;;0.00;0.00;;;;;14.78;87.07;101628.84;5101302;27;45287;-87
2021/09/20 01:00:15;;;;;;;;;1.25;1.25;;;;;14.77;87.31;101614.75;5100081;27;45435;-87
2021/09/20 01:02:40;;;;;;;;;0.75;0.75;;;;;14.76;87.17;101609.50;5082493;27;45313;-87
2021/09/20 01:05:07;;;;;;;;;0.50;0.50;;;;;14.83;87.15;101621.59;5085024;27;46439;-87
2021/09/20 01:07:33;;;;;;;;;0.00;0.00;;;;;14.80;87.38;101613.75;5096065;27;45322;-87
2021/09/20 01:10:06;;;;;;;;;1.75;1.00;;;;;14.73;87.36;101611.34;5083199;27;45358;-91
2021/09/20 01:12:32;;;;;;;;;0.00;0.00;;;;;14.80;87.49;101616.41;5099226;27;45591;-87
2021/09/20 01:14:59;;;;;;;;;0.75;0.75;;;;;14.90;87.43;101616.97;5098405;27;45527;-87
2021/09/20 01:17:25;;;;;;;;;1.75;1.00;;;;;14.90;87.51;101609.91;5100360;27;45486;-87
2021/09/20 01:19:54;;;;;;;;;0.50;0.00;;;;;14.99;87.44;101606.03;5094214;27;45448;-90
2021/09/20 01:22:22;;;;;;;;;1.00;1.00;;;;;15.07;87.42;101608.38;5096016;27;45548;-84
2021/09/20 01:24:48;;;;;;;;;0.25;0.25;;;;;15.09;87.45;101603.88;5082303;27;47189;-87
2021/09/20 01:27:16;;;;;;;;;1.00;1.00;;;;;15.12;87.18;101605.56;5100537;27;45247;-88
2021/09/20 01:29:42;;;;;;;;;1.00;1.00;;;;;15.16;87.12;101623.06;5089811;27;45277;-87
2021/09/20 01:32:08;;;;;;;;;0.75;0.75;;;;;15.07;86.79;101606.59;5068644;27;45920;-85
2021/09/20 01:37:42;;;;;;;;;1.50;1.50;;;;;15.06;86.71;101599.56;5016739;28;45542;-85
2021/09/20 01:40:11;;;;;;;;;2.00;2.00;;;;;15.13;87.07;101599.34;5093762;27;45595;-90
2021/09/20 01:42:38;;;;;;;;;1.00;1.00;;;;;15.13;87.30;101596.72;5094824;27;45498;-89
2021/09/20 01:45:03;;;;;;;;;1.25;1.00;;;;;15.19;86.94;101599.09;5081297;27;47187;-90
2021/09/20 01:47:29;;;;;;;;;3.50;2.00;;;;;15.27;87.19;101609.41;5063662;27;45822;-84
2021/09/20 01:49:54;;;;;;;;;1.75;1.00;;;;;15.27;86.81;101594.38;5073092;27;45466;-86
2021/09/20 01:52:20;;;;;;;;;1.75;1.75;;;;;15.26;87.19;101590.00;5065593;28;47040;-86
2021/09/20 01:54:45;;;;;;;;;2.50;1.00;;;;;15.34;87.16;101602.06;5079770;28;45252;-83
2021/09/20 02:00:09;;;;;;;;;2.00;2.00;;;;;15.41;86.93;101606.19;5068628;28;45350;-88
2021/09/20 02:02:38;;;;;;;;;3.25;2.00;;;;;15.43;87.00;101604.38;5061844;28;46885;-93
2021/09/20 02:05:07;;;;;;;;;1.00;1.00;;;;;15.38;87.06;101596.59;5061459;28;47160;-90
2021/09/20 02:07:33;;;;;;;;;2.50;2.50;;;;;15.36;86.71;101595.78;5077791;28;45258;-92
2021/09/20 02:09:58;;;;;;;;;3.50;2.25;;;;;15.41;87.01;101598.25;5070045;28;45362;-92
2021/09/20 02:12:34;;;;;;;;;2.25;0.00;;;;;15.37;86.71;101586.06;5076682;28;45431;-91
2021/09/20 02:15:00;;;;;;;;;3.00;1.50;;;;;15.39;86.44;101587.72;5052988;28;47237;-93
2021/09/20 02:17:25;;;;;;;;;1.00;1.00;;;;;15.43;86.06;101585.84;5054758;28;46106;-92
2021/09/20 02:19:50;;;;;;;;;1.00;1.00;;;;;15.43;85.80;101583.19;5063863;27;45580;-90
2021/09/20 02:22:16;;;;;;;;;2.00;2.00;;;;;15.46;85.83;101582.19;5060271;27;45560;-90
2021/09/20 02:24:43;;;;;;;;;3.25;3.25;;;;;15.53;85.60;101595.13;5064359;28;45283;-90
2021/09/20 02:27:08;;;;;;;;;3.75;2.50;;;;;15.56;85.25;101583.53;5079470;28;45504;-87
2021/09/20 02:29:34;;;;;;;;;2.25;1.00;;;;;15.58;84.73;101586.13;5063248;28;45261;-87
2021/09/20 02:31:59;;;;;;;;;2.00;2.00;;;;;15.57;83.24;101579.97;5082810;28;45228;-87
2021/09/20 02:34:25;;;;;;;;;2.00;2.00;;;;;15.63;81.82;101589.47;5063371;28;48232;-89
2021/09/20 02:36:50;;;;;;;;;3.00;1.75;;;;;15.61;81.64;101583.34;5068253;28;45278;-85
2021/09/20 02:39:16;;;;;;;;;3.00;2.25;;;;;15.62;80.82;101585.06;5082671;28;45271;-90
2021/09/20 02:41:42;;;;;;;;;1.50;1.50;;;;;15.58;80.84;101586.97;5064967;28;46096;-93
2021/09/20 02:44:08;;;;;;;;;2.00;2.00;;;;;15.57;80.59;101584.41;5077671;28;46815;-94
2021/09/20 02:46:34;;;;;;;;;2.00;2.00;;;;;15.58;80.77;101589.63;5075276;28;45464;-92
2021/09/20 02:48:59;;;;;;;;;2.00;2.00;;;;;15.47;80.58;101571.53;5104664;27;45480;-91
2021/09/20 02:51:25;;;;;;;;;2.00;2.00;;;;;15.53;80.58;101573.09;5101887;27;45540;-92
2021/09/20 02:53:51;;;;;;;;;4.00;3.50;;;;;15.56;80.45;101578.22;5084766;27;47000;-83
2021/09/20 02:56:18;;;;;;;;;2.00;2.00;;;;;15.62;80.47;101583.28;5103253;27;45425;-94
2021/09/20 02:59:01;;;;;;;;;2.75;2.00;;;;;15.54;80.14;101572.13;5078850;27;45215;-92
2021/09/20 03:01:40;;;;;;;;;2.00;2.00;;;;;15.61;80.16;101578.03;5070715;27;45888;-92
2021/09/20 03:04:15;;;;;;;;;4.50;3.00;;;;;15.60;80.29;101573.69;5096156;27;45306;-91
2021/09/20 03:06:51;;;;;;;;;;;;;;;;;;;;;
2021/09/20 03:09:19;;;;;;;;;1.75;1.75;;;;;15.57;79.26;101577.31;5101967;27;67662;-90
2021/09/20 03:11:53;;;;;;;;;2.00;2.00;;;;;15.62;79.65;101585.94;5100422;27;45441;-91
2021/09/20 03:14:18;;;;;;;;;2.00;2.00;;;;;15.55;79.95;101570.34;5092948;27;46210;-92
2021/09/20 03:16:44;;;;;;;;;4.00;3.50;;;;;15.64;79.51;101589.41;5102901;27;45424;-93
2021/09/20 03:19:10;;;;;;;;;1.00;1.00;;;;;15.57;79.61;101582.63;5102504;27;45382;-92
2021/09/20 03:22:05;;;;;;;;;2.50;2.00;;;;;15.63;79.45;101589.47;5090776;27;45496;-89
2021/09/20 03:25:03;;;;;;;;;3.00;1.00;;;;;15.54;79.56;101569.50;5054170;28;47234;-90
2021/09/20 03:27:28;;;;;;;;;1.50;1.50;;;;;15.61;79.71;101578.03;5070856;27;45217;-89
2021/09/20 03:29:54;;;;;;;;;2.25;2.00;;;;;15.67;79.76;101587.53;5097621;27;45487;-88
2021/09/20 03:32:19;;;;;;;;;3.00;2.00;;;;;15.67;79.75;101596.34;5075470;27;46266;-89
2021/09/20 03:34:45;;;;;;;;;1.50;1.00;;;;;15.61;79.47;101578.03;5097321;27;46178;-86
2021/09/20 03:37:10;;;;;;;;;2.25;2.25;;;;;15.67;79.21;101595.50;5094549;27;45212;-87
2021/09/20 03:39:35;;;;;;;;;1.25;1.25;;;;;15.70;79.51;101590.06;5099917;27;45614;-88
2021/09/20 03:42:01;;;;;;;;;3.00;3.00;;;;;15.68;79.06;101591.94;5091299;27;45299;-93
2021/09/20 03:44:26;;;;;;;;;4.50;1.00;;;;;15.71;79.61;101586.47;5084093;27;48026;-92
2021/09/20 03:46:52;;;;;;;;;1.75;1.75;;;;;15.66;79.25;101584.03;5093864;27;45450;-87
2021/09/20 03:49:17;;;;;;;;;2.25;2.25;;;;;15.73;79.12;101593.44;5095018;27;45584;-85
2021/09/20 03:51:42;;;;;;;;;1.75;1.75;;;;;15.77;79.35;101602.13;5108664;27;45248;-83
2021/09/20 03:54:08;;;;;;;;;4.75;2.50;;;;;15.73;78.84;101582.84;5092295;27;46585;-83
2021/09/20 03:56:33;;;;;;;;;3.75;3.00;;;;;15.81;78.99;101592.25;5081722;28;45406;-83
2021/09/20 03:58:59;;;;;;;;;1.75;1.75;;;;;15.80;78.78;101595.84;5091083;27;45447;-82
2021/09/20 04:01:24;;;;;;;;;1.75;1.00;;;;;15.85;78.98;101585.91;5088400;27;45335;-83
2021/09/20 04:03:49;;;;;;;;;3.00;1.75;;;;;15.87;78.83;101589.38;5088167;27;45349;-85
2021/09/20 04:06:15;;;;;;;;;3.00;2.00;;;;;15.92;78.63;101595.34;5101416;27;45522;-86
2021/09/20 04:08:40;;;;;;;;;2.50;2.25;;;;;15.90;78.74;101589.22;5083772;27;45362;-86
2021/09/20 04:11:06;;;;;;;;;2.00;2.00;;;;;15.94;78.89;101588.19;5069837;27;45869;-86
2021/09/20 04:13:31;;;;;;;;;2.75;2.00;;;;;15.95;78.71;101589.88;5101890;27;45422;-86
2021/09/20 04:15:57;;;;;;;;;3.25;3.00;;;;;15.95;78.69;101589.88;5099863;27;45267;-86
2021/09/20 04:18:24;;;;;;;;;4.25;3.00;;;;;15.97;78.71;101588.06;5077423;27;45268;-86
2021/09/20 04:20:51;;;;;;;;;2.00;1.00;;;;;16.04;78.60;101601.03;5088462;27;47297;-86
2021/09/20 04:23:18;;;;;;;;;4.75;3.50;;;;;15.98;78.62;101589.75;5099974;27;45856;-82
2021/09/20 04:25:44;;;;;;;;;2.75;2.75;;;;;16.00;78.20;101591.50;5101756;27;45385;-86
2021/09/20 04:28:09;;;;;;;;;3.00;3.00;;;;;16.01;78.49;101604.69;5088343;27;45346;-85
2021/09/20 04:30:34;;;;;;;;;4.50;2.00;;;;;16.00;78.48;101595.00;5101461;27;45692;-88
2021/09/20 04:33:00;;;;;;;;;3.50;3.00;;;;;16.06;78.42;101600.09;5101670;27;45509;-92
2021/09/20 04:35:25;;;;;;;;;4.75;2.50;;;;;16.06;78.64;101596.56;5082964;27;45323;-86
2021/09/20 04:37:51;;;;;;;;;3.00;2.50;;;;;16.12;78.57;101604.28;5092037;27;45462;-87
2021/09/20 04:40:16;;;;;;;;;4.75;3.00;;;;;16.13;78.49;101597.16;5101411;27;45428;-89
2021/09/20 04:42:41;;;;;;;;;4.75;2.25;;;;;16.18;77.81;101596.03;5101676;27;45390;-93
2021/09/20 04:45:07;;;;;;;;;2.75;2.75;;;;;16.16;77.93;101597.03;5086435;27;45154;-87
2021/09/20 04:47:33;;;;;;;;;4.00;2.00;;;;;16.18;77.90;101596.03;5070602;27;45298;-92
2021/09/20 04:49:58;;;;;;;;;6.00;3.00;;;;;16.22;77.62;101603.88;5082641;27;45596;-92
2021/09/20 04:52:23;;;;;;;;;4.00;2.25;;;;;16.20;77.40;101603.91;5082275;27;45906;-86
2021/09/20 04:54:49;;;;;;;;;4.00;4.00;;;;;16.16;77.54;101605.84;5114623;27;45257;-83
2021/09/20 04:57:14;;;;;;;;;3.25;2.00;;;;;16.16;77.67;101605.00;5081659;27;45224;-86
2021/09/20 04:59:40;;;;;;;;;2.25;2.25;;;;;16.20;77.58;101606.56;5096022;27;45269;-82
2021/09/20 05:02:05;;;;;;;;;3.75;3.75;;;;;16.16;77.33;101595.25;5100824;27;46299;-88
2021/09/20 05:04:30;;;;;;;;;3.25;2.75;;;;;16.20;77.48;101603.91;5089313;27;45465;-90
2021/09/20 05:06:56;;;;;;;;;5.00;2.50;;;;;16.20;77.38;101603.91;5100995;27;45227;-87
2021/09/20 05:09:21;;;;;;;;;4.00;2.75;;;;;16.20;77.78;101606.56;5098414;27;45524;-92
2021/09/20 05:11:47;;;;;;;;;5.25;3.00;;;;;16.18;77.50;101600.47;5071617;27;46242;-85
2021/09/20 05:14:13;;;;;;;;;4.00;4.00;;;;;16.22;77.33;101609.19;5087800;27;45401;-89
2021/09/20 05:16:39;;;;;;;;;2.75;2.75;;;;;16.17;77.35;101604.91;5093155;27;45243;-87
2021/09/20 05:19:04;;;;;;;;;2.75;2.75;;;;;16.22;77.60;101618.00;5100644;27;45567;-87
2021/09/20 05:21:29;;;;;;;;;4.00;4.00;;;;;16.15;77.70;101617.38;5087284;27;45387;-87
2021/09/20 05:23:55;;;;;;;;;1.75;1.75;;;;;16.17;77.09;101620.81;5100749;27;45259;-88
2021/09/20 05:26:21;;;;;;;;;2.75;2.75;;;;;16.13;77.09;101619.25;5069692;27;45481;-89
2021/09/20 05:28:46;;;;;;;;;3.00;2.00;;;;;16.13;77.24;101621.88;5081387;27;45839;-89
2021/09/20 05:31:23;;;;;;;;;7.00;4.00;;;;;16.08;77.56;101618.56;5086000;27;45456;-90
2021/09/20 05:34:01;;;;;;;;;;;;;;;;;;;;;
2021/09/20 05:36:27;;;;;;;;;4.00;4.00;;;;;16.16;77.57;101629.72;5094582;27;69147;-87
2021/09/20 05:38:52;;;;;;;;;4.00;4.00;;;;;16.16;77.91;101631.50;5096998;27;45409;-88
2021/09/20 05:41:17;;;;;;;;;2.50;2.50;;;;;16.17;77.52;101633.25;5098816;27;45414;-86
2021/09/20 05:43:43;;;;;;;;;2.50;2.50;;;;;16.17;77.89;101628.78;5067430;27;45422;-90
2021/09/20 05:46:08;;;;;;;;;5.25;3.25;;;;;16.14;77.79;101617.47;5100679;27;45313;-90
2021/09/20 05:48:34;;;;;;;;;5.25;5.00;;;;;16.15;77.98;101630.63;5096454;27;45420;-87
2021/09/20 05:51:00;;;;;;;;;3.00;3.00;;;;;16.20;77.56;101636.63;5102986;27;45250;-87
2021/09/20 05:53:25;;;;;;;;;3.50;3.50;;;;;16.18;77.29;101629.66;5100572;27;45382;-87
2021/09/20 05:55:51;;;;;;;;;5.25;4.25;;;;;16.18;77.34;101630.50;5079983;28;45585;-87
2021/09/20 05:58:16;;;;;;;;;4.75;3.00;;;;;16.20;77.28;101631.31;5091315;27;45404;-88
2021/09/20 06:00:43;;;;;;;;;4.00;4.00;;;;;16.16;77.12;101621.78;5081207;27;48430;-88
2021/09/20 06:03:09;;;;;;;;;4.75;4.75;;;;;16.23;77.26;101640.94;5080429;28;45667;-88
2021/09/20 06:05:38;;;;;;;;;4.75;4.25;;;;;16.20;77.56;101633.09;5085426;27;45409;-91
2021/09/20 06:08:05;;;;;;;;;6.00;6.00;;;;;16.18;77.16;101635.81;5099945;27;45378;-85
2021/09/20 06:10:31;;;;;;;;;5.25;5.00;;;;;16.22;77.22;101638.34;5103807;27;46589;-89
2021/09/20 06:12:57;;;;;;;;;6.50;5.25;;;;;16.18;77.36;101635.81;5103413;27;45362;-88
2021/09/20 06:15:22;;;;;;;;;7.00;6.00;;;;;16.17;77.51;101633.25;5103675;27;45249;-89
2021/09/20 06:17:47;;;;;;;;;6.75;5.50;;;;;16.23;77.47;101648.88;5089932;27;45267;-84
2021/09/20 06:20:13;;;;;;;;;7.25;6.25;;;;;16.23;77.85;101640.94;5083162;27;47260;-84
2021/09/20 06:22:39;;;;;;;;;7.00;5.00;;;;;16.27;78.13;101647.81;5083485;27;45243;-86
2021/09/20 06:25:06;;;;;;;;;7.75;5.50;;;;;16.30;78.25;101646.81;5094356;27;45266;-86
2021/09/20 06:27:36;;;;;;;;;8.25;7.50;;;;;16.39;77.94;101656.19;5083105;27;46325;-91
2021/09/20 06:30:11;;;;;;;;;9.50;7.50;;;;;16.41;78.02;101644.59;5076435;27;47222;-90
2021/09/20 06:32:44;;;;;;;;;5.75;5.75;;;;;16.46;78.07;101651.47;5099272;27;45314;-89
2021/09/20 06:42:36;;;;;;;;;10.00;9.00;;;;;16.73;77.74;101664.47;5081053;27;45402;-93
2021/09/20 06:45:01;;;;;;;;;9.00;9.00;;;;;16.78;78.05;101662.47;5087821;27;45762;-85
2021/09/20 06:47:29;;;;;;;;;10.25;10.25;;;;;16.82;77.52;101661.38;5087681;27;45232;-87
2021/09/20 06:49:54;;;;;;;;;10.75;10.00;;;;;16.84;77.91;101670.16;5093212;27;45451;-84
2021/09/20 06:52:22;;;;;;;;;14.50;12.00;;;;;16.94;77.55;101677.72;5082427;27;47359;-86
2021/09/20 06:54:47;;;;;;;;;14.50;12.75;;;;;16.92;77.56;101668.94;5101228;27;45291;-85
2021/09/20 06:57:13;;;;;;;;;18.25;13.75;;;;;16.95;77.50;101674.13;5100284;27;45181;-85
2021/09/20 06:59:38;;;;;;;;;11.00;11.00;;;;;16.98;77.08;101689.91;5097976;27;46307;-85
2021/09/20 07:02:06;;;;;;;;;14.50;13.50;;;;;16.98;77.46;101685.47;5094054;27;46184;-84
2021/09/20 07:04:32;;;;;;;;;13.50;12.75;;;;;16.99;77.28;101688.97;5092065;27;45232;-84
2021/09/20 07:06:57;;;;;;;;;13.50;12.75;;;;;17.00;77.61;101696.03;5090519;27;45456;-84
2021/09/20 07:09:25;;;;;;;;;17.75;13.50;;;;;16.99;77.50;101686.31;5084529;27;46925;-86
2021/09/20 07:11:51;;;;;;;;;15.50;12.75;;;;;16.97;77.63;101685.53;5084170;27;46725;-86
2021/09/20 07:14:16;;;;;;;;;15.75;13.50;;;;;17.12;77.98;101704.34;5101945;27;45297;-85
2021/09/20 07:16:42;;;;;;;;;13.25;11.75;;;;;17.07;77.52;101684.19;5101444;27;45414;-86
2021/09/20 07:19:08;;;;;;;;;16.75;13.75;;;;;17.16;77.66;101688.22;5082631;27;46896;-86
2021/09/20 07:21:34;;;;;;;;;17.00;14.25;;;;;17.22;77.82;101697.72;5099091;27;47667;-86
2021/09/20 07:24:01;;;;;;;;;18.50;14.25;;;;;17.26;77.28;101701.13;5076602;27;45383;-86
2021/09/20 07:26:29;;;;;;;;;21.25;13.75;;;;;17.32;77.28;101707.00;5082765;27;45468;-85
2021/09/20 07:28:56;;;;;;;;;17.25;14.50;;;;;17.28;77.28;101697.47;5083810;27;45990;-86
2021/09/20 07:31:22;;;;;;;;;16.00;14.25;;;;;17.36;77.52;101705.03;5102013;27;45419;-86
2021/09/20 07:33:48;;;;;;;;;16.75;13.75;;;;;17.40;77.28;101704.00;5100818;27;45287;-86
2021/09/20 07:36:15;;;;;;;;;17.25;14.25;;;;;17.41;77.60;101704.81;5102603;27;45240;-86
2021/09/20 07:38:42;;;;;;;;;19.00;16.25;;;;;17.46;76.98;101710.78;5079653;27;45430;-86
2021/09/20 07:41:07;;;;;;;;;11.00;9.75;;;;;17.45;77.15;101702.91;5097376;27;46167;-86
2021/09/20 07:43:33;;;;;;;;;14.00;9.75;;;;;17.51;76.63;101710.56;5098819;27;45323;-86
2021/09/20 07:45:59;;;;;;;;;22.00;16.25;;;;;17.48;76.96;101703.59;5095149;27;45425;-86
2021/09/20 07:48:25;;;;;;;;;12.75;11.25;;;;;17.51;76.77;101703.47;5078865;27;45402;-86
2021/09/20 07:50:51;;;;;;;;;16.75;15.25;;;;;17.60;77.02;101707.50;5051672;28;47129;-86
2021/09/20 07:53:16;;;;;;;;;16.50;16.50;;;;;17.59;77.14;101711.09;5064452;28;45599;-82
2021/09/20 07:55:43;;;;;;;;;19.25;18.25;;;;;17.57;77.41;101706.78;5078418;28;45564;-84
2021/09/20 07:58:09;;;;;;;;;16.25;15.25;;;;;17.62;76.31;101712.75;5066233;27;45246;-84
2021/09/20 08:00:37;;;;;;;;;15.50;14.25;;;;;17.59;76.44;101707.56;5073350;28;45508;-84
2021/09/20 08:03:06;;;;;;;;;16.75;13.00;;;;;17.57;76.52;101712.97;5075258;28;45519;-84
2021/09/20 08:05:33;;;;;;;;;18.25;13.75;;;;;17.60;76.35;101723.44;5076465;27;45468;-84
2021/09/20 08:07:58;;;;;;;;;16.75;16.75;;;;;17.54;76.07;101715.75;5051990;28;46353;-84
2021/09/20 08:10:24;;;;;;;;;16.75;14.00;;;;;17.53;76.41;101719.38;5076829;28;45200;-81
2021/09/20 08:12:50;;;;;;;;;17.75;15.25;;;;;17.50;76.03;101716.84;5058646;28;45257;-84
2021/09/20 08:15:15;;;;;;;;;16.50;14.00;;;;;17.49;76.22;101729.25;5060369;28;45239;-85
2021/09/20 08:17:41;;;;;;;;;14.50;14.00;;;;;17.49;76.42;101726.59;5069584;27;45534;-85
2021/09/20 08:20:09;;;;;;;;;18.50;16.25;;;;;17.54;76.38;101735.22;5071782;28;45545;-85
2021/09/20 08:22:34;;;;;;;;;15.50;11.00;;;;;17.51;76.18;101722.06;5060999;28;45333;-85
2021/09/20 08:25:01;;;;;;;;;17.75;16.25;;;;;17.60;76.51;101739.41;5057802;28;45637;-85
2021/09/20 08:27:27;;;;;;;;;22.25;17.75;;;;;17.65;76.75;101729.41;5078375;28;45410;-85
2021/09/20 08:29:52;;;;;;;;;13.25;12.25;;;;;17.66;76.56;101733.78;5085113;27;45448;-85
2021/09/20 08:32:19;;;;;;;;;16.25;13.00;;;;;17.70;76.35;101728.31;5062658;28;45247;-85
2021/09/20 08:34:45;;;;;;;;;17.25;15.25;;;;;17.81;75.81;101746.41;5067759;28;45309;-86
2021/09/20 08:37:11;;;;;;;;;16.00;14.25;;;;;17.81;76.09;101743.75;5062668;28;46290;-85
2021/09/20 08:39:36;;;;;;;;;12.75;11.75;;;;;17.87;75.79;101739.03;5060543;28;48241;-85
2021/09/20 08:42:03;;;;;;;;;12.00;11.25;;;;;17.95;74.88;101748.44;5062800;28;45576;-85
2021/09/20 08:44:28;;;;;;;;;15.50;13.75;;;;;17.98;75.04;101746.47;5062495;28;45272;-85
2021/09/20 08:46:55;;;;;;;;;15.50;12.75;;;;;18.04;75.07;101747.97;5076549;28;45453;-85
2021/09/20 08:49:23;;;;;;;;;16.75;15.75;;;;;18.07;75.08;101757.59;5092900;27;45739;-85
2021/09/20 08:51:57;;;;;;;;;15.50;15.50;;;;;18.09;75.28;101753.94;5079962;27;45268;-85
2021/09/20 08:54:26;;;;;;;;;19.50;12.00;;;;;18.09;74.92;101750.41;5083062;27;45237;-88
2021/09/20 08:56:53;;;;;;;;;16.00;14.75;;;;;18.16;74.75;101750.97;5078438;27;46240;-86
2021/09/20 08:59:20;;;;;;;;;13.25;12.00;;;;;18.27;73.97;101761.13;5105798;27;46151;-88
2021/09/20 09:01:53;;;;;;;;;14.50;13.75;;;;;18.30;73.70;101755.63;5104852;27;45418;-87
2021/09/20 09:04:27;;;;;;;;;17.00;15.50;;;;;18.30;73.67;101763.59;5071862;27;45433;-88
2021/09/20 09:07:08;;;;;;;;;15.50;12.75;;;;;18.31;73.88;101760.00;5100816;27;45445;-90
2021/09/20 09:09:38;;;;;;;;;19.25;10.25;;;;;18.34;73.19;101767.84;5074780;28;47226;-88
2021/09/20 09:12:42;;;;;;;;;;;;;;;;;;;;;
2021/09/20 11:15:27;;;;;;;;;17.25;13.50;;;;;19.31;70.36;101794.06;5060418;23;45244;-86
2021/09/20 11:18:51;;;;;;;;;14.25;11.25;;;;;19.28;71.13;101787.09;4883889;29;47015;-88
2021/09/20 11:21:16;;;;;;;;;16.50;15.75;;;;;19.32;70.00;101799.31;4845523;29;46103;-83
2021/09/20 11:23:44;;;;;;;;;13.75;13.25;;;;;19.32;70.47;101803.78;4846402;29;45406;-87
2021/09/20 11:26:11;;;;;;;;;10.75;9.50;;;;;19.36;70.23;101802.66;4864973;29;45257;-87
2021/09/20 11:28:39;;;;;;;;;17.75;15.25;;;;;19.38;70.39;101805.25;4885911;29;45447;-88
2021/09/20 11:31:04;;;;;;;;;15.50;13.25;;;;;19.38;70.33;101807.94;4884974;29;47162;-88
2021/09/20 11:33:37;;;;;;;;;14.50;12.25;;;;;19.36;70.09;101801.81;4885815;29;45485;-90
2021/09/20 11:36:19;;;;;;;;;14.50;12.00;;;;;19.40;70.29;101816.69;4886260;29;45523;-84
2021/09/20 11:38:45;;;;;;;;;12.50;11.50;;;;;19.39;69.69;101818.50;4886186;29;45356;-89
2021/09/20 11:41:44;;;;;;;;;17.00;13.75;;;;;19.39;70.17;101818.50;4884212;29;46898;-89
2021/09/20 11:44:14;;;;;;;;;21.75;15.75;;;;;19.31;69.77;101812.72;4884507;29;45586;-88
2021/09/20 11:46:45;;;;;;;;;13.75;13.00;;;;;19.33;69.65;101822.34;4892888;29;45416;-89
2021/09/20 11:49:17;;;;;;;;;15.50;14.50;;;;;19.34;70.39;101821.41;4889971;29;45408;-89
2021/09/20 11:51:43;;;;;;;;;13.00;13.00;;;;;19.29;69.89;101815.47;4861743;29;47046;-88
2021/09/20 11:54:26;;;;;;;;;11.00;11.00;;;;;19.30;70.06;101822.53;4890477;29;45697;-88
2021/09/20 11:56:51;;;;;;;;;15.00;13.75;;;;;19.34;69.70;101828.53;4885335;29;45241;-85
2021/09/20 11:59:18;;;;;;;;;14.00;12.75;;;;;19.39;69.79;101820.28;4894345;29;45512;-89
2021/09/20 12:02:07;;;;;;;;;14.00;14.00;;;;;19.40;69.22;101822.03;4888246;29;45469;-87
2021/09/20 12:04:49;;;;;;;;;15.75;13.75;;;;;19.45;69.65;101828.84;4885711;29;45403;-87
2021/09/20 12:07:26;;;;;;;;;15.75;13.00;;;;;19.56;69.17;101832.72;4885457;29;45461;-88
2021/09/20 12:09:53;;;;;;;;;12.50;11.50;;;;;19.55;68.92;101833.66;4885333;29;45633;-88
2021/09/20 12:12:19;;;;;;;;;16.75;13.75;;;;;19.62;69.19;101834.19;4885673;29;45319;-88
2021/09/20 12:15:01;;;;;;;;;13.50;13.25;;;;;19.62;68.22;101821.72;4885408;29;45229;-88
2021/09/20 12:17:44;;;;;;;;;14.50;12.50;;;;;19.71;68.59;101828.34;4876766;29;45503;-88
2021/09/20 12:20:10;;;;;;;;;8.00;8.00;;;;;19.73;68.33;101829.13;4884851;29;45487;-88
2021/09/20 12:22:43;;;;;;;;;12.00;11.25;;;;;19.79;68.22;101842.16;4870032;29;46713;-88
2021/09/20 12:25:31;;;;;;;;;12.25;12.25;;;;;19.78;67.96;101831.53;4893243;29;45466;-87
2021/09/20 12:27:58;;;;;;;;;14.50;11.75;;;;;19.81;67.72;101830.50;4886600;29;45312;-88
2021/09/20 12:30:26;;;;;;;;;17.00;14.25;;;;;19.88;68.04;101837.22;4882235;29;45452;-87
2021/09/20 12:33:10;;;;;;;;;15.25;13.75;;;;;19.87;67.73;101832.84;4891501;29;45264;-88
2021/09/20 12:35:38;;;;;;;;;11.00;9.50;;;;;19.93;67.34;101835.16;4880646;29;45536;-87
2021/09/20 12:38:18;;;;;;;;;12.00;10.50;;;;;20.00;67.27;101833.88;4885088;29;45458;-87
2021/09/20 12:40:45;;;;;;;;;13.00;12.00;;;;;19.94;67.47;101833.38;4884784;29;45244;-87
2021/09/20 12:43:21;;;;;;;;;16.50;12.75;;;;;19.95;67.72;101830.59;4888815;29;48036;-87
2021/09/20 12:45:46;;;;;;;;;10.75;10.50;;;;;19.96;67.67;101839.47;4891582;29;45668;-87
2021/09/20 12:48:14;;;;;;;;;15.25;13.25;;;;;19.90;67.20;101835.34;4888204;28;45249;-88
2021/09/20 12:50:46;;;;;;;;;7.00;7.00;;;;;19.89;67.42;101841.63;4885197;29;45250;-88
2021/09/20 12:53:16;;;;;;;;;14.00;12.50;;;;;19.81;67.43;101831.38;4884806;29;46351;-87
2021/09/20 12:55:41;;;;;;;;;12.75;12.25;;;;;19.78;67.39;101837.75;4884485;29;45388;-87
2021/09/20 12:58:23;;;;;;;;;11.75;11.25;;;;;19.81;67.68;101830.50;4869367;29;45477;-87
2021/09/20 13:00:54;;;;;;;;;12.50;11.75;;;;;19.87;68.10;101836.38;4889146;29;45621;-87
2021/09/20 13:03:28;;;;;;;;;10.75;10.75;;;;;19.94;68.00;101838.69;4884662;29;45272;-87
2021/09/20 13:05:55;;;;;;;;;12.50;11.25;;;;;20.04;67.69;101857.72;4867381;29;45212;-87
2021/09/20 13:08:21;;;;;;;;;12.25;11.75;;;;;20.03;67.30;101848.84;4884885;29;45311;-88
2021/09/20 13:10:46;;;;;;;;;16.50;12.50;;;;;20.10;67.52;101849.41;4884130;29;45551;-88
2021/09/20 13:13:31;;;;;;;;;15.00;13.75;;;;;20.08;67.17;101840.59;4895347;29;45351;-87
2021/09/20 13:16:08;;;;;;;;;12.50;10.25;;;;;20.09;67.12;101837.84;4884456;29;45228;-87
2021/09/20 13:18:34;;;;;;;;;10.25;10.25;;;;;20.18;66.59;101849.84;4884862;29;45498;-88
2021/09/20 13:21:21;;;;;;;;;9.75;8.00;;;;;20.16;66.77;101838.41;4879975;29;46842;-88
2021/09/20 13:23:47;;;;;;;;;11.00;11.00;;;;;20.22;66.11;101840.69;4883787;29;46380;-88
2021/09/20 13:26:16;;;;;;;;;12.25;9.75;;;;;20.24;66.64;101848.63;4872471;29;45430;-88
2021/09/20 13:28:46;;;;;;;;;10.75;9.50;;;;;20.32;66.49;101851.72;4884077;29;45326;-87
2021/09/20 13:31:15;;;;;;;;;11.50;10.25;;;;;20.40;66.72;101856.63;4867305;29;47323;-87
2021/09/20 13:34:06;;;;;;;;;12.00;8.75;;;;;20.49;66.61;101855.25;4883148;29;47063;-88
2021/09/20 13:36:31;;;;;;;;;13.75;12.25;;;;;20.50;66.28;101848.06;4866902;29;45691;-88
2021/09/20 13:39:06;;;;;;;;;11.75;10.50;;;;;20.51;65.34;101840.00;4896567;29;45689;-88
2021/09/20 13:41:31;;;;;;;;;9.00;9.00;;;;;20.49;64.94;101836.56;4885475;29;46797;-88